sensor_id;sensor_type;location;lat;lon;timestamp;temperature;humidity
38428;DHT22;24211;49.980;19.776;2024-01-30T00:02:19;2.80;99.90
38428;DHT22;24211;49.980;19.776;2024-01-30T00:04:47;2.80;99.90
38428;DHT22;24211;49.980;19.776;2024-01-30T00:07:14;2.80;99.90
38428;DHT22;24211;49.980;19.776;2024-01-30T00:09:42;2.80;99.90
38428;DHT22;24211;49.980;19.776;2024-01-30T00:12:10;2.70;99.90
38428;DHT22;24211;49.980;19.776;2024-01-30T00:14:37;2.80;99.90
38428;DHT22;24211;49.980;19.776;2024-01-30T00:17:05;2.70;99.90
38428;DHT22;24211;49.980;19.776;2024-01-30T00:19:33;2.70;99.90
38428;DHT22;24211;49.980;19.776;2024-01-30T00:22:02;2.70;99.90
38428;DHT22;24211;49.980;19.776;2024-01-30T00:24:34;2.60;99.90
38428;DHT22;24211;49.980;19.776;2024-01-30T00:27:04;2.60;99.90
38428;DHT22;24211;49.980;19.776;2024-01-30T00:29:31;2.60;99.90
38428;DHT22;24211;49.980;19.776;2024-01-30T00:32:08;2.60;99.90
38428;DHT22;24211;49.980;19.776;2024-01-30T00:34:36;2.60;99.90
38428;DHT22;24211;49.980;19.776;2024-01-30T00:37:03;2.50;99.90
38428;DHT22;24211;49.980;19.776;2024-01-30T00:39:31;2.50;99.90
38428;DHT22;24211;49.980;19.776;2024-01-30T00:41:59;2.50;99.90
38428;DHT22;24211;49.980;19.776;2024-01-30T00:44:30;2.50;99.90
38428;DHT22;24211;49.980;19.776;2024-01-30T00:46:57;2.50;99.90
38428;DHT22;24211;49.980;19.776;2024-01-30T00:49:25;2.40;99.90
38428;DHT22;24211;49.980;19.776;2024-01-30T00:51:52;2.40;99.90
38428;DHT22;24211;49.980;19.776;2024-01-30T00:54:20;2.40;99.90
38428;DHT22;24211;49.980;19.776;2024-01-30T00:56:47;2.40;99.90
38428;DHT22;24211;49.980;19.776;2024-01-30T00:59:15;2.40;99.90
38428;DHT22;24211;49.980;19.776;2024-01-30T01:01:43;2.40;99.90
38428;DHT22;24211;49.980;19.776;2024-01-30T01:04:10;2.30;99.90
38428;DHT22;24211;49.980;19.776;2024-01-30T01:06:38;2.30;99.90
38428;DHT22;24211;49.980;19.776;2024-01-30T01:09:05;2.30;99.90
38428;DHT22;24211;49.980;19.776;2024-01-30T01:11:33;2.30;99.90
38428;DHT22;24211;49.980;19.776;2024-01-30T01:14:00;2.30;99.90
38428;DHT22;24211;49.980;19.776;2024-01-30T01:16:28;2.20;99.90
38428;DHT22;24211;49.980;19.776;2024-01-30T01:18:55;2.20;99.90
38428;DHT22;24211;49.980;19.776;2024-01-30T01:21:24;2.20;99.90
38428;DHT22;24211;49.980;19.776;2024-01-30T01:23:52;2.20;99.90
38428;DHT22;24211;49.980;19.776;2024-01-30T01:26:20;2.20;99.90
38428;DHT22;24211;49.980;19.776;2024-01-30T01:28:49;2.20;99.90
38428;DHT22;24211;49.980;19.776;2024-01-30T01:31:16;2.20;99.90
38428;DHT22;24211;49.980;19.776;2024-01-30T01:33:45;2.10;99.90
38428;DHT22;24211;49.980;19.776;2024-01-30T01:36:13;2.10;99.90
38428;DHT22;24211;49.980;19.776;2024-01-30T01:38:41;2.10;99.90
38428;DHT22;24211;49.980;19.776;2024-01-30T01:41:08;2.10;99.90
38428;DHT22;24211;49.980;19.776;2024-01-30T01:43:36;2.00;99.90
38428;DHT22;24211;49.980;19.776;2024-01-30T01:46:06;2.00;99.90
38428;DHT22;24211;49.980;19.776;2024-01-30T01:48:36;2.00;99.90
38428;DHT22;24211;49.980;19.776;2024-01-30T01:51:04;2.00;99.90
38428;DHT22;24211;49.980;19.776;2024-01-30T01:53:32;1.90;99.90
38428;DHT22;24211;49.980;19.776;2024-01-30T01:56:00;1.90;99.90
38428;DHT22;24211;49.980;19.776;2024-01-30T01:58:33;1.90;99.90
38428;DHT22;24211;49.980;19.776;2024-01-30T02:01:02;1.80;99.90
38428;DHT22;24211;49.980;19.776;2024-01-30T02:03:31;1.80;99.90
38428;DHT22;24211;49.980;19.776;2024-01-30T02:05:59;1.80;99.90
38428;DHT22;24211;49.980;19.776;2024-01-30T02:08:26;1.80;99.90
38428;DHT22;24211;49.980;19.776;2024-01-30T02:10:55;1.70;99.90
38428;DHT22;24211;49.980;19.776;2024-01-30T02:13:22;1.70;99.90
38428;DHT22;24211;49.980;19.776;2024-01-30T02:15:52;1.70;99.90
38428;DHT22;24211;49.980;19.776;2024-01-30T02:18:20;1.70;99.90
38428;DHT22;24211;49.980;19.776;2024-01-30T02:20:53;1.70;99.90
38428;DHT22;24211;49.980;19.776;2024-01-30T02:23:59;1.70;99.90
38428;DHT22;24211;49.980;19.776;2024-01-30T02:26:52;1.70;99.90
38428;DHT22;24211;49.980;19.776;2024-01-30T02:29:44;1.60;99.90
38428;DHT22;24211;49.980;19.776;2024-01-30T02:32:12;1.60;99.90
38428;DHT22;24211;49.980;19.776;2024-01-30T02:35:05;1.60;99.90
38428;DHT22;24211;49.980;19.776;2024-01-30T02:37:50;1.60;99.90
38428;DHT22;24211;49.980;19.776;2024-01-30T02:40:18;1.60;99.90
38428;DHT22;24211;49.980;19.776;2024-01-30T02:42:46;1.50;99.90
38428;DHT22;24211;49.980;19.776;2024-01-30T02:45:13;1.50;99.90
38428;DHT22;24211;49.980;19.776;2024-01-30T02:48:07;1.50;99.90
38428;DHT22;24211;49.980;19.776;2024-01-30T02:50:34;1.50;99.90
38428;DHT22;24211;49.980;19.776;2024-01-30T02:53:02;1.40;99.90
38428;DHT22;24211;49.980;19.776;2024-01-30T02:55:30;1.40;99.90
38428;DHT22;24211;49.980;19.776;2024-01-30T02:58:24;1.40;99.90
38428;DHT22;24211;49.980;19.776;2024-01-30T03:02:02;1.40;99.90
38428;DHT22;24211;49.980;19.776;2024-01-30T03:04:30;1.30;99.90
38428;DHT22;24211;49.980;19.776;2024-01-30T03:06:58;1.30;99.90
38428;DHT22;24211;49.980;19.776;2024-01-30T03:09:26;1.30;99.90
38428;DHT22;24211;49.980;19.776;2024-01-30T03:11:57;1.30;99.90
38428;DHT22;24211;49.980;19.776;2024-01-30T03:14:45;1.30;99.90
38428;DHT22;24211;49.980;19.776;2024-01-30T03:17:13;1.30;99.90
38428;DHT22;24211;49.980;19.776;2024-01-30T03:19:48;1.20;99.90
38428;DHT22;24211;49.980;19.776;2024-01-30T03:22:19;1.20;99.90
38428;DHT22;24211;49.980;19.776;2024-01-30T03:24:46;1.20;99.90
38428;DHT22;24211;49.980;19.776;2024-01-30T03:27:14;1.10;99.90
38428;DHT22;24211;49.980;19.776;2024-01-30T03:29:49;1.10;99.90
38428;DHT22;24211;49.980;19.776;2024-01-30T03:32:17;1.10;99.90
38428;DHT22;24211;49.980;19.776;2024-01-30T03:34:53;1.10;99.90
38428;DHT22;24211;49.980;19.776;2024-01-30T03:37:21;1.00;99.90
38428;DHT22;24211;49.980;19.776;2024-01-30T03:39:50;1.00;99.90
38428;DHT22;24211;49.980;19.776;2024-01-30T03:42:18;1.00;99.90
38428;DHT22;24211;49.980;19.776;2024-01-30T03:44:45;0.90;99.90
38428;DHT22;24211;49.980;19.776;2024-01-30T03:47:12;0.90;99.90
38428;DHT22;24211;49.980;19.776;2024-01-30T03:49:43;0.90;99.90
38428;DHT22;24211;49.980;19.776;2024-01-30T03:52:11;0.90;99.90
38428;DHT22;24211;49.980;19.776;2024-01-30T03:54:49;0.90;99.90
38428;DHT22;24211;49.980;19.776;2024-01-30T03:57:17;0.90;99.90
38428;DHT22;24211;49.980;19.776;2024-01-30T03:59:45;0.90;99.90
38428;DHT22;24211;49.980;19.776;2024-01-30T04:02:19;0.80;99.90
38428;DHT22;24211;49.980;19.776;2024-01-30T04:04:48;0.80;99.90
38428;DHT22;24211;49.980;19.776;2024-01-30T04:07:16;0.80;99.90
38428;DHT22;24211;49.980;19.776;2024-01-30T04:09:46;0.70;99.90
38428;DHT22;24211;49.980;19.776;2024-01-30T04:12:19;0.70;99.90
38428;DHT22;24211;49.980;19.776;2024-01-30T04:14:46;0.70;99.90
38428;DHT22;24211;49.980;19.776;2024-01-30T04:17:14;0.70;99.90
38428;DHT22;24211;49.980;19.776;2024-01-30T04:19:41;0.70;99.90
38428;DHT22;24211;49.980;19.776;2024-01-30T04:22:09;0.70;99.90
38428;DHT22;24211;49.980;19.776;2024-01-30T04:24:36;0.60;99.90
38428;DHT22;24211;49.980;19.776;2024-01-30T04:27:04;0.60;99.90
38428;DHT22;24211;49.980;19.776;2024-01-30T04:29:32;0.60;99.90
38428;DHT22;24211;49.980;19.776;2024-01-30T04:32:00;0.60;99.90
38428;DHT22;24211;49.980;19.776;2024-01-30T04:34:28;0.60;99.90
38428;DHT22;24211;49.980;19.776;2024-01-30T04:36:57;0.50;99.90
38428;DHT22;24211;49.980;19.776;2024-01-30T04:39:24;0.50;99.90
38428;DHT22;24211;49.980;19.776;2024-01-30T04:41:52;0.50;99.90
38428;DHT22;24211;49.980;19.776;2024-01-30T04:44:19;0.50;99.90
38428;DHT22;24211;49.980;19.776;2024-01-30T04:46:47;0.50;99.90
38428;DHT22;24211;49.980;19.776;2024-01-30T04:49:14;0.40;99.90
38428;DHT22;24211;49.980;19.776;2024-01-30T04:51:42;0.40;99.90
38428;DHT22;24211;49.980;19.776;2024-01-30T04:54:10;0.40;99.90
38428;DHT22;24211;49.980;19.776;2024-01-30T04:56:37;0.40;99.90
38428;DHT22;24211;49.980;19.776;2024-01-30T04:59:06;0.30;99.90
38428;DHT22;24211;49.980;19.776;2024-01-30T05:01:37;0.30;99.90
38428;DHT22;24211;49.980;19.776;2024-01-30T05:04:09;0.30;99.90
38428;DHT22;24211;49.980;19.776;2024-01-30T05:06:43;0.30;99.90
38428;DHT22;24211;49.980;19.776;2024-01-30T05:09:10;0.30;99.90
38428;DHT22;24211;49.980;19.776;2024-01-30T05:11:39;0.20;99.90
38428;DHT22;24211;49.980;19.776;2024-01-30T05:14:07;0.20;99.90
38428;DHT22;24211;49.980;19.776;2024-01-30T05:16:39;0.20;99.90
38428;DHT22;24211;49.980;19.776;2024-01-30T05:19:06;0.20;99.90
38428;DHT22;24211;49.980;19.776;2024-01-30T05:21:34;0.20;99.90
38428;DHT22;24211;49.980;19.776;2024-01-30T05:24:01;0.20;99.90
38428;DHT22;24211;49.980;19.776;2024-01-30T05:26:29;0.20;99.90
38428;DHT22;24211;49.980;19.776;2024-01-30T05:28:57;0.20;99.90
38428;DHT22;24211;49.980;19.776;2024-01-30T05:31:25;0.10;99.90
38428;DHT22;24211;49.980;19.776;2024-01-30T05:33:54;0.10;99.90
38428;DHT22;24211;49.980;19.776;2024-01-30T05:36:22;0.10;99.90
38428;DHT22;24211;49.980;19.776;2024-01-30T05:38:49;0.10;99.90
38428;DHT22;24211;49.980;19.776;2024-01-30T05:41:30;0.00;99.90
38428;DHT22;24211;49.980;19.776;2024-01-30T05:44:06;0.00;99.90
38428;DHT22;24211;49.980;19.776;2024-01-30T05:47:00;0.00;99.90
38428;DHT22;24211;49.980;19.776;2024-01-30T05:49:27;0.00;99.90
38428;DHT22;24211;49.980;19.776;2024-01-30T05:51:55;-0.10;99.90
38428;DHT22;24211;49.980;19.776;2024-01-30T05:54:22;-0.10;99.90
38428;DHT22;24211;49.980;19.776;2024-01-30T05:56:50;-0.10;99.90
38428;DHT22;24211;49.980;19.776;2024-01-30T05:59:34;-0.20;99.90
38428;DHT22;24211;49.980;19.776;2024-01-30T06:02:08;-0.20;99.90
38428;DHT22;24211;49.980;19.776;2024-01-30T06:04:35;-0.20;99.90
38428;DHT22;24211;49.980;19.776;2024-01-30T06:07:13;-0.20;99.90
38428;DHT22;24211;49.980;19.776;2024-01-30T06:09:40;-0.20;99.90
38428;DHT22;24211;49.980;19.776;2024-01-30T06:12:53;-0.20;99.90
38428;DHT22;24211;49.980;19.776;2024-01-30T06:15:31;-0.20;99.90
38428;DHT22;24211;49.980;19.776;2024-01-30T06:18:23;-0.30;99.90
38428;DHT22;24211;49.980;19.776;2024-01-30T06:20:51;-0.30;99.90
38428;DHT22;24211;49.980;19.776;2024-01-30T06:23:22;-0.30;99.90
38428;DHT22;24211;49.980;19.776;2024-01-30T06:25:50;-0.30;99.90
38428;DHT22;24211;49.980;19.776;2024-01-30T06:28:38;-0.30;99.90
38428;DHT22;24211;49.980;19.776;2024-01-30T06:31:06;-0.30;99.90
38428;DHT22;24211;49.980;19.776;2024-01-30T06:33:36;-0.40;99.90
38428;DHT22;24211;49.980;19.776;2024-01-30T06:36:04;-0.40;99.90
38428;DHT22;24211;49.980;19.776;2024-01-30T06:38:32;-0.40;99.90
38428;DHT22;24211;49.980;19.776;2024-01-30T06:40:59;-0.40;99.90
38428;DHT22;24211;49.980;19.776;2024-01-30T06:43:27;-0.40;99.90
38428;DHT22;24211;49.980;19.776;2024-01-30T06:45:59;-0.40;99.90
38428;DHT22;24211;49.980;19.776;2024-01-30T06:48:27;-0.40;99.90
38428;DHT22;24211;49.980;19.776;2024-01-30T06:50:57;-0.30;99.90
38428;DHT22;24211;49.980;19.776;2024-01-30T06:53:25;-0.30;99.90
38428;DHT22;24211;49.980;19.776;2024-01-30T06:56:18;-0.30;99.90
38428;DHT22;24211;49.980;19.776;2024-01-30T06:59:18;-0.30;99.90
38428;DHT22;24211;49.980;19.776;2024-01-30T07:01:45;-0.30;99.90
38428;DHT22;24211;49.980;19.776;2024-01-30T07:04:13;-0.30;99.90
38428;DHT22;24211;49.980;19.776;2024-01-30T07:06:57;-0.30;99.90
38428;DHT22;24211;49.980;19.776;2024-01-30T07:09:25;-0.20;99.90
38428;DHT22;24211;49.980;19.776;2024-01-30T07:11:53;-0.20;99.90
38428;DHT22;24211;49.980;19.776;2024-01-30T07:14:36;-0.20;99.90
38428;DHT22;24211;49.980;19.776;2024-01-30T07:17:05;-0.20;99.90
38428;DHT22;24211;49.980;19.776;2024-01-30T07:19:33;-0.10;99.90
38428;DHT22;24211;49.980;19.776;2024-01-30T07:22:01;-0.10;99.90
38428;DHT22;24211;49.980;19.776;2024-01-30T07:24:29;0.00;99.90
38428;DHT22;24211;49.980;19.776;2024-01-30T07:27:03;0.00;99.90
38428;DHT22;24211;49.980;19.776;2024-01-30T07:29:49;0.00;99.90
38428;DHT22;24211;49.980;19.776;2024-01-30T07:32:17;0.10;99.90
38428;DHT22;24211;49.980;19.776;2024-01-30T07:34:45;0.10;99.90
38428;DHT22;24211;49.980;19.776;2024-01-30T07:37:32;0.20;99.90
38428;DHT22;24211;49.980;19.776;2024-01-30T07:40:01;0.20;99.90
38428;DHT22;24211;49.980;19.776;2024-01-30T07:42:30;0.30;99.90
38428;DHT22;24211;49.980;19.776;2024-01-30T07:45:00;0.30;99.90
38428;DHT22;24211;49.980;19.776;2024-01-30T07:47:33;0.30;99.90
38428;DHT22;24211;49.980;19.776;2024-01-30T07:50:01;0.40;99.90
38428;DHT22;24211;49.980;19.776;2024-01-30T07:52:33;0.40;99.90
38428;DHT22;24211;49.980;19.776;2024-01-30T07:58:20;0.50;99.90
38428;DHT22;24211;49.980;19.776;2024-01-30T08:00:48;0.60;99.90
38428;DHT22;24211;49.980;19.776;2024-01-30T08:03:41;0.60;99.90
38428;DHT22;24211;49.980;19.776;2024-01-30T08:06:09;0.70;99.90
38428;DHT22;24211;49.980;19.776;2024-01-30T08:08:50;0.70;99.90
38428;DHT22;24211;49.980;19.776;2024-01-30T08:11:45;0.80;99.90
38428;DHT22;24211;49.980;19.776;2024-01-30T08:14:12;0.80;99.90
38428;DHT22;24211;49.980;19.776;2024-01-30T08:17:20;0.90;99.90
38428;DHT22;24211;49.980;19.776;2024-01-30T08:20:12;1.00;99.90
38428;DHT22;24211;49.980;19.776;2024-01-30T08:22:56;1.00;99.90
38428;DHT22;24211;49.980;19.776;2024-01-30T08:25:28;1.10;99.90
38428;DHT22;24211;49.980;19.776;2024-01-30T08:27:56;1.20;99.90
38428;DHT22;24211;49.980;19.776;2024-01-30T08:30:25;1.20;99.90
38428;DHT22;24211;49.980;19.776;2024-01-30T08:33:04;1.30;99.90
38428;DHT22;24211;49.980;19.776;2024-01-30T08:35:39;1.40;99.90
38428;DHT22;24211;49.980;19.776;2024-01-30T08:38:06;1.40;99.90
38428;DHT22;24211;49.980;19.776;2024-01-30T08:40:33;1.50;99.90
38428;DHT22;24211;49.980;19.776;2024-01-30T08:43:05;1.60;99.90
38428;DHT22;24211;49.980;19.776;2024-01-30T08:45:32;1.70;99.90
38428;DHT22;24211;49.980;19.776;2024-01-30T08:48:00;1.70;99.90
38428;DHT22;24211;49.980;19.776;2024-01-30T08:50:29;1.80;99.90
38428;DHT22;24211;49.980;19.776;2024-01-30T08:52:57;1.90;99.90
38428;DHT22;24211;49.980;19.776;2024-01-30T08:55:24;2.00;99.90
38428;DHT22;24211;49.980;19.776;2024-01-30T08:57:51;2.00;99.90
38428;DHT22;24211;49.980;19.776;2024-01-30T09:00:22;2.10;99.90
38428;DHT22;24211;49.980;19.776;2024-01-30T09:02:49;2.20;99.90
38428;DHT22;24211;49.980;19.776;2024-01-30T09:05:17;2.20;99.90
38428;DHT22;24211;49.980;19.776;2024-01-30T09:07:44;2.30;99.90
38428;DHT22;24211;49.980;19.776;2024-01-30T09:10:13;2.40;99.90
38428;DHT22;24211;49.980;19.776;2024-01-30T09:12:43;2.50;99.90
38428;DHT22;24211;49.980;19.776;2024-01-30T09:15:10;2.60;99.90
38428;DHT22;24211;49.980;19.776;2024-01-30T09:17:37;2.70;99.90
38428;DHT22;24211;49.980;19.776;2024-01-30T09:20:08;2.80;99.90
38428;DHT22;24211;49.980;19.776;2024-01-30T09:22:38;2.90;99.90
38428;DHT22;24211;49.980;19.776;2024-01-30T09:25:09;2.90;99.90
38428;DHT22;24211;49.980;19.776;2024-01-30T09:27:43;3.00;99.90
38428;DHT22;24211;49.980;19.776;2024-01-30T09:30:35;3.10;99.90
38428;DHT22;24211;49.980;19.776;2024-01-30T09:33:04;3.20;99.90
38428;DHT22;24211;49.980;19.776;2024-01-30T09:35:46;3.30;99.90
38428;DHT22;24211;49.980;19.776;2024-01-30T09:38:27;3.40;99.90
38428;DHT22;24211;49.980;19.776;2024-01-30T09:40:55;3.50;99.90
38428;DHT22;24211;49.980;19.776;2024-01-30T09:43:38;3.60;99.90
38428;DHT22;24211;49.980;19.776;2024-01-30T09:46:22;3.70;99.90
38428;DHT22;24211;49.980;19.776;2024-01-30T09:49:00;3.80;99.90
38428;DHT22;24211;49.980;19.776;2024-01-30T09:51:51;3.90;99.90
38428;DHT22;24211;49.980;19.776;2024-01-30T09:54:20;4.00;99.90
38428;DHT22;24211;49.980;19.776;2024-01-30T09:56:48;4.10;99.90
38428;DHT22;24211;49.980;19.776;2024-01-30T09:59:16;4.30;99.90
38428;DHT22;24211;49.980;19.776;2024-01-30T10:01:43;4.40;99.90
38428;DHT22;24211;49.980;19.776;2024-01-30T10:04:15;4.40;99.90
38428;DHT22;24211;49.980;19.776;2024-01-30T10:06:43;4.50;99.90
38428;DHT22;24211;49.980;19.776;2024-01-30T10:09:10;4.70;99.90
38428;DHT22;24211;49.980;19.776;2024-01-30T10:11:37;4.70;99.90
38428;DHT22;24211;49.980;19.776;2024-01-30T10:14:05;4.80;99.90
38428;DHT22;24211;49.980;19.776;2024-01-30T10:16:34;4.90;99.90
38428;DHT22;24211;49.980;19.776;2024-01-30T10:19:02;5.00;99.90
38428;DHT22;24211;49.980;19.776;2024-01-30T10:21:30;5.10;99.90
38428;DHT22;24211;49.980;19.776;2024-01-30T10:23:58;5.20;99.90
38428;DHT22;24211;49.980;19.776;2024-01-30T10:26:47;5.40;99.90
38428;DHT22;24211;49.980;19.776;2024-01-30T10:29:14;5.50;99.90
38428;DHT22;24211;49.980;19.776;2024-01-30T10:32:07;5.60;99.90
38428;DHT22;24211;49.980;19.776;2024-01-30T10:34:42;5.70;99.90
38428;DHT22;24211;49.980;19.776;2024-01-30T10:37:11;5.80;99.90
38428;DHT22;24211;49.980;19.776;2024-01-30T10:40:22;5.90;99.90
38428;DHT22;24211;49.980;19.776;2024-01-30T10:43:22;5.90;99.90
38428;DHT22;24211;49.980;19.776;2024-01-30T10:45:54;6.00;99.90
38428;DHT22;24211;49.980;19.776;2024-01-30T10:48:27;6.10;99.90
38428;DHT22;24211;49.980;19.776;2024-01-30T10:50:59;6.10;99.90
38428;DHT22;24211;49.980;19.776;2024-01-30T10:53:31;6.10;99.90
38428;DHT22;24211;49.980;19.776;2024-01-30T10:56:14;6.10;99.90
38428;DHT22;24211;49.980;19.776;2024-01-30T10:58:44;6.20;99.90
38428;DHT22;24211;49.980;19.776;2024-01-30T11:01:20;6.30;99.90
38428;DHT22;24211;49.980;19.776;2024-01-30T11:03:52;6.40;99.90
38428;DHT22;24211;49.980;19.776;2024-01-30T11:06:49;6.60;99.90
38428;DHT22;24211;49.980;19.776;2024-01-30T11:10:03;6.70;99.90
38428;DHT22;24211;49.980;19.776;2024-01-30T11:12:38;6.80;99.90
38428;DHT22;24211;49.980;19.776;2024-01-30T11:15:27;7.00;99.90
38428;DHT22;24211;49.980;19.776;2024-01-30T11:18:28;7.10;99.90
38428;DHT22;24211;49.980;19.776;2024-01-30T11:21:16;7.30;99.90
38428;DHT22;24211;49.980;19.776;2024-01-30T11:24:08;7.30;99.90
38428;DHT22;24211;49.980;19.776;2024-01-30T11:26:36;7.40;99.90
38428;DHT22;24211;49.980;19.776;2024-01-30T11:29:06;7.60;99.90
38428;DHT22;24211;49.980;19.776;2024-01-30T11:31:56;7.60;99.90
38428;DHT22;24211;49.980;19.776;2024-01-30T11:37:47;7.70;99.90
38428;DHT22;24211;49.980;19.776;2024-01-30T11:40:16;7.60;99.90
38428;DHT22;24211;49.980;19.776;2024-01-30T11:42:44;7.70;99.90
38428;DHT22;24211;49.980;19.776;2024-01-30T11:45:12;7.70;99.90
38428;DHT22;24211;49.980;19.776;2024-01-30T11:47:41;7.70;99.90
38428;DHT22;24211;49.980;19.776;2024-01-30T11:50:11;7.70;99.90
38428;DHT22;24211;49.980;19.776;2024-01-30T11:52:44;7.70;99.90
38428;DHT22;24211;49.980;19.776;2024-01-30T11:55:12;7.80;99.90
38428;DHT22;24211;49.980;19.776;2024-01-30T11:57:43;7.80;99.90
38428;DHT22;24211;49.980;19.776;2024-01-30T12:00:19;7.90;99.90
38428;DHT22;24211;49.980;19.776;2024-01-30T12:03:01;8.00;99.90
38428;DHT22;24211;49.980;19.776;2024-01-30T12:06:03;8.10;99.90
38428;DHT22;24211;49.980;19.776;2024-01-30T12:08:31;8.20;99.90
38428;DHT22;24211;49.980;19.776;2024-01-30T12:10:58;8.20;99.90
38428;DHT22;24211;49.980;19.776;2024-01-30T12:13:28;8.30;99.90
38428;DHT22;24211;49.980;19.776;2024-01-30T12:16:01;8.40;99.90
38428;DHT22;24211;49.980;19.776;2024-01-30T12:18:29;8.50;99.90
38428;DHT22;24211;49.980;19.776;2024-01-30T12:21:00;8.60;99.90
38428;DHT22;24211;49.980;19.776;2024-01-30T12:27:08;8.80;99.90
38428;DHT22;24211;49.980;19.776;2024-01-30T12:29:42;9.00;99.90
38428;DHT22;24211;49.980;19.776;2024-01-30T12:32:15;9.10;99.90
38428;DHT22;24211;49.980;19.776;2024-01-30T12:34:55;9.20;99.90
38428;DHT22;24211;49.980;19.776;2024-01-30T12:37:30;9.40;99.90
38428;DHT22;24211;49.980;19.776;2024-01-30T12:39:57;9.50;99.90
38428;DHT22;24211;49.980;19.776;2024-01-30T12:42:27;9.60;99.90
38428;DHT22;24211;49.980;19.776;2024-01-30T12:44:57;9.70;99.90
38428;DHT22;24211;49.980;19.776;2024-01-30T12:47:26;9.80;99.90
38428;DHT22;24211;49.980;19.776;2024-01-30T12:49:54;9.90;99.90
38428;DHT22;24211;49.980;19.776;2024-01-30T12:52:45;10.00;99.90
38428;DHT22;24211;49.980;19.776;2024-01-30T12:55:16;10.10;99.90
38428;DHT22;24211;49.980;19.776;2024-01-30T12:57:45;10.20;99.90
38428;DHT22;24211;49.980;19.776;2024-01-30T13:00:13;10.30;99.90
38428;DHT22;24211;49.980;19.776;2024-01-30T13:02:40;10.30;99.90
38428;DHT22;24211;49.980;19.776;2024-01-30T13:05:09;10.40;99.90
38428;DHT22;24211;49.980;19.776;2024-01-30T13:07:37;10.50;99.90
38428;DHT22;24211;49.980;19.776;2024-01-30T13:10:05;10.70;99.90
38428;DHT22;24211;49.980;19.776;2024-01-30T13:12:33;10.80;99.90
38428;DHT22;24211;49.980;19.776;2024-01-30T13:15:00;10.80;99.90
38428;DHT22;24211;49.980;19.776;2024-01-30T13:17:28;10.90;99.90
38428;DHT22;24211;49.980;19.776;2024-01-30T13:19:56;11.00;99.90
38428;DHT22;24211;49.980;19.776;2024-01-30T13:22:36;11.00;99.90
38428;DHT22;24211;49.980;19.776;2024-01-30T13:25:06;11.10;99.90
38428;DHT22;24211;49.980;19.776;2024-01-30T13:27:35;11.20;99.90
38428;DHT22;24211;49.980;19.776;2024-01-30T13:30:03;11.30;99.90
38428;DHT22;24211;49.980;19.776;2024-01-30T13:32:31;11.40;99.90
38428;DHT22;24211;49.980;19.776;2024-01-30T13:34:58;11.40;99.90
38428;DHT22;24211;49.980;19.776;2024-01-30T13:37:26;11.50;99.90
38428;DHT22;24211;49.980;19.776;2024-01-30T13:39:54;11.60;99.90
38428;DHT22;24211;49.980;19.776;2024-01-30T13:42:22;11.70;99.90
38428;DHT22;24211;49.980;19.776;2024-01-30T13:44:49;11.70;99.90
38428;DHT22;24211;49.980;19.776;2024-01-30T13:47:17;11.70;99.90
38428;DHT22;24211;49.980;19.776;2024-01-30T13:49:46;11.70;99.90
38428;DHT22;24211;49.980;19.776;2024-01-30T13:52:13;11.80;99.90
38428;DHT22;24211;49.980;19.776;2024-01-30T13:54:42;11.80;99.90
38428;DHT22;24211;49.980;19.776;2024-01-30T13:57:10;11.80;99.90
38428;DHT22;24211;49.980;19.776;2024-01-30T13:59:38;11.80;99.90
38428;DHT22;24211;49.980;19.776;2024-01-30T14:02:06;11.80;99.90
38428;DHT22;24211;49.980;19.776;2024-01-30T14:04:35;11.80;99.90
38428;DHT22;24211;49.980;19.776;2024-01-30T14:07:04;11.80;99.90
38428;DHT22;24211;49.980;19.776;2024-01-30T14:09:34;11.90;99.90
38428;DHT22;24211;49.980;19.776;2024-01-30T14:12:02;11.90;99.90
38428;DHT22;24211;49.980;19.776;2024-01-30T14:14:29;11.90;99.90
38428;DHT22;24211;49.980;19.776;2024-01-30T14:16:57;11.90;99.90
38428;DHT22;24211;49.980;19.776;2024-01-30T14:19:25;11.90;99.90
38428;DHT22;24211;49.980;19.776;2024-01-30T14:21:52;11.90;99.90
38428;DHT22;24211;49.980;19.776;2024-01-30T14:24:19;11.80;99.90
38428;DHT22;24211;49.980;19.776;2024-01-30T14:26:47;11.80;99.90
38428;DHT22;24211;49.980;19.776;2024-01-30T14:29:14;11.80;99.90
38428;DHT22;24211;49.980;19.776;2024-01-30T14:31:42;11.70;99.90
38428;DHT22;24211;49.980;19.776;2024-01-30T14:34:09;11.70;99.90
38428;DHT22;24211;49.980;19.776;2024-01-30T14:36:38;11.70;99.90
38428;DHT22;24211;49.980;19.776;2024-01-30T14:39:05;11.70;99.90
38428;DHT22;24211;49.980;19.776;2024-01-30T14:41:34;11.70;99.90
38428;DHT22;24211;49.980;19.776;2024-01-30T14:44:01;11.60;99.90
38428;DHT22;24211;49.980;19.776;2024-01-30T14:46:31;11.60;99.90
38428;DHT22;24211;49.980;19.776;2024-01-30T14:48:59;11.60;99.90
38428;DHT22;24211;49.980;19.776;2024-01-30T14:51:27;11.50;99.90
38428;DHT22;24211;49.980;19.776;2024-01-30T14:53:56;11.50;99.90
38428;DHT22;24211;49.980;19.776;2024-01-30T14:56:23;11.50;99.90
38428;DHT22;24211;49.980;19.776;2024-01-30T14:58:51;11.40;99.90
38428;DHT22;24211;49.980;19.776;2024-01-30T15:01:18;11.40;99.90
38428;DHT22;24211;49.980;19.776;2024-01-30T15:03:46;11.30;99.90
38428;DHT22;24211;49.980;19.776;2024-01-30T15:06:18;11.30;99.90
38428;DHT22;24211;49.980;19.776;2024-01-30T15:08:55;11.20;99.90
38428;DHT22;24211;49.980;19.776;2024-01-30T15:11:23;11.20;99.90
38428;DHT22;24211;49.980;19.776;2024-01-30T15:13:51;11.10;99.90
38428;DHT22;24211;49.980;19.776;2024-01-30T15:16:18;11.10;99.90
38428;DHT22;24211;49.980;19.776;2024-01-30T15:18:45;11.00;99.90
38428;DHT22;24211;49.980;19.776;2024-01-30T15:21:13;10.90;99.90
38428;DHT22;24211;49.980;19.776;2024-01-30T15:23:40;10.80;99.90
38428;DHT22;24211;49.980;19.776;2024-01-30T15:26:07;10.80;99.90
38428;DHT22;24211;49.980;19.776;2024-01-30T15:28:36;10.70;99.90
38428;DHT22;24211;49.980;19.776;2024-01-30T15:31:06;10.60;99.90
38428;DHT22;24211;49.980;19.776;2024-01-30T15:33:38;10.40;99.90
38428;DHT22;24211;49.980;19.776;2024-01-30T15:36:05;10.40;99.90
38428;DHT22;24211;49.980;19.776;2024-01-30T15:38:32;10.30;99.90
38428;DHT22;24211;49.980;19.776;2024-01-30T15:41:00;10.20;99.90
38428;DHT22;24211;49.980;19.776;2024-01-30T15:43:27;10.10;99.90
38428;DHT22;24211;49.980;19.776;2024-01-30T15:46:42;10.00;99.90
38428;DHT22;24211;49.980;19.776;2024-01-30T15:49:15;9.90;99.90
38428;DHT22;24211;49.980;19.776;2024-01-30T15:51:43;9.80;99.90
38428;DHT22;24211;49.980;19.776;2024-01-30T15:54:10;9.70;99.90
38428;DHT22;24211;49.980;19.776;2024-01-30T15:56:38;9.60;99.90
38428;DHT22;24211;49.980;19.776;2024-01-30T15:59:07;9.50;99.90
38428;DHT22;24211;49.980;19.776;2024-01-30T16:01:38;9.40;99.90
38428;DHT22;24211;49.980;19.776;2024-01-30T16:04:07;9.30;99.90
38428;DHT22;24211;49.980;19.776;2024-01-30T16:06:35;9.20;99.90
38428;DHT22;24211;49.980;19.776;2024-01-30T16:09:02;9.10;99.90